Latest Weather Observations for Mount Ginini

IDN60801

Issued at 9:12 pm EST Wednesday 5 August 2020 (issued every 10 minutes, with the page automatically refreshed every 10 minutes)

About weather observations | Map of weather stations | Latest weather observations for NSW | Other Formats
Station Details ID: 070349 Name: MOUNT GININI AWS Lat: -35.53 Lon: 148.77 Height: 1760.0 m
Data from the previous 72 hours. | See also: Recent months at Mount Ginini
Date/Time
EST
Temp
°C
App
Temp
°C
Dew
Point
°C
Rel
Hum
%
Delta-T
°C
Wind Press
QNH
hPa
Press
MSL
hPa
Rain since
9am
mm
Dir  Spd
km/h
Gust
km/h
Spd
kts
Gust
kts
05/09:00pm -4.3 -10.7 -4.7 97 -0.1 WSW 20 33 11 18 - - 0.2
05/08:30pm -4.5 -12.4 -4.9 97 -0.1 WSW 28 46 15 25 - - 0.2
05/08:00pm -4.4 -12.3 -4.8 97 -0.1 WSW 28 50 15 27 - - 0.2
05/07:57pm -4.4 -12.3 -4.9 96 0.0 WSW 28 50 15 27 - - 0.2
05/07:30pm -4.5 -11.7 -5.0 96 0.0 WSW 24 37 13 20 - - 0.2
05/07:00pm -4.6 -11.8 -5.4 94 0.1 WSW 24 41 13 22 - - 0.2
05/06:30pm -4.4 -13.1 -5.2 94 0.1 WSW 32 56 17 30 - - 0.2
05/06:07pm -4.5 -12.4 -5.2 95 0.0 WSW 28 50 15 27 - - 0.2
05/06:00pm -4.5 -12.1 -5.3 94 0.1 WSW 26 50 14 27 - - 0.2
05/05:34pm -4.6 -12.9 -5.4 94 0.1 WSW 30 48 16 26 - - 0.2
05/05:30pm -4.6 -13.3 -5.3 95 0.0 WSW 32 48 17 26 - - 0.2
05/05:00pm -4.5 -13.2 -5.3 94 0.1 WSW 32 52 17 28 - - 0.2
05/04:30pm -4.6 -13.0 -5.7 92 0.2 WSW 30 50 16 27 - - 0.0
05/04:00pm -4.1 -13.0 -5.5 90 0.3 WSW 33 54 18 29 - - 0.0
05/03:42pm -3.6 -11.7 -6.4 81 0.8 WSW 28 56 15 30 - - 0.0
05/03:30pm -2.9 -9.2 -5.7 81 0.8 WSW 19 33 10 18 - - 0.0
05/03:00pm -0.7 -6.5 -4.6 75 1.4 WSW 17 33 9 18 - - 0.0
05/02:30pm -0.8 -8.1 -6.1 67 1.8 WSW 24 46 13 25 - - 0.0
05/02:00pm -0.6 -8.6 -5.6 69 1.7 WSW 28 48 15 26 - - 0.0
05/01:50pm -1.1 -9.2 -6.6 66 1.8 WSW 28 57 15 31 - - 0.0
05/01:30pm -0.7 -7.7 -3.9 79 1.1 WSW 24 39 13 21 - - 0.0
05/01:00pm -1.3 -7.3 -3.0 88 0.6 SW 19 33 10 18 - - 0.0
05/12:30pm -1.9 -9.2 -3.0 92 0.3 SW 26 44 14 24 - - 0.0
05/12:00pm -2.7 -8.9 -3.2 96 0.1 SW 20 41 11 22 - - 0.0
05/11:30am -3.0 -9.2 -3.4 97 0.0 SW 20 43 11 23 - - 0.0
05/11:00am -3.2 -8.9 -3.6 97 0.0 WSW 17 33 9 18 - - 0.0
05/10:30am -4.1 -10.3 -4.5 97 0.0 WSW 19 39 10 21 - - 0.0
05/10:00am -4.6 -10.8 -5.0 97 -0.1 WSW 19 33 10 18 - - 0.0
05/09:30am -5.1 -11.4 -5.5 97 -0.1 WSW 19 35 10 19 - - 0.0
05/09:00am -5.5 -12.0 -5.9 97 -0.1 WSW 20 43 11 23 - - 0.0
05/08:30am -5.7 -12.0 -6.1 97 -0.1 WSW 19 37 10 20 - - 0.0
05/08:00am -5.9 -12.4 -6.3 97 -0.1 WSW 20 37 11 20 - - 0.0
05/07:30am -6.2 -12.8 -6.7 96 -0.1 WSW 20 35 11 19 - - 0.0
05/07:00am -6.6 -12.6 -7.1 96 -0.1 W 17 28 9 15 - - 0.0
05/06:30am -7.0 -13.1 -7.5 96 -0.1 W 17 32 9 17 - - 0.0
05/06:00am -7.1 -13.6 -7.6 96 -0.1 WSW 19 33 10 18 - - 0.0
05/05:30am -7.0 -11.9 -7.4 97 -0.1 WSW 11 33 6 18 - - 0.0
05/05:00am -7.0 -13.1 -7.4 97 -0.1 W 17 37 9 20 - - 0.0
05/04:30am -6.7 -12.8 -7.2 96 -0.1 W 17 32 9 17 - - 0.0
05/04:00am -6.6 -13.2 -7.1 96 -0.1 W 20 41 11 22 - - 0.0
05/03:30am -6.5 -12.9 -7.0 96 -0.1 W 19 39 10 21 - - 0.0
05/03:00am -6.3 -12.9 -6.8 96 -0.1 W 20 43 11 23 - - 0.0
05/02:30am -6.0 -12.0 -6.5 96 -0.1 W 17 39 9 21 - - 0.0
05/02:00am -5.8 -11.8 -6.3 96 -0.1 W 17 37 9 20 - - 0.0
05/01:30am -5.7 -11.7 -6.2 96 -0.1 W 17 39 9 21 - - 0.0
05/01:00am -5.5 -11.4 -6.0 96 -0.1 W 17 41 9 22 - - 0.0
05/12:30am -5.3 -11.2 -5.8 96 -0.1 W 17 35 9 19 - - 0.0
05/12:00am -5.7 -11.7 -6.2 96 -0.1 W 17 33 9 18 - - 0.0
 
Date/Time
EST
Temp
°C
App
Temp
°C
Dew
Point
°C
Rel
Hum
%
Delta-T
°C
Wind Press
QNH
hPa
Press
MSL
hPa
Rain since
9am
mm
Dir  Spd
km/h
Gust
km/h
Spd
kts
Gust
kts
04/11:30pm -5.9 -12.5 -6.6 95 0.0 W 20 39 11 21 - - 0.0
04/11:00pm -6.0 -12.6 -6.7 95 0.0 W 20 39 11 21 - - 0.0
04/10:30pm -6.0 -11.6 -6.7 95 0.0 W 15 30 8 16 - - 0.0
04/10:00pm -5.9 -12.5 -6.7 94 0.0 W 20 39 11 21 - - 0.0
04/09:30pm -5.9 -12.3 -6.7 94 0.0 W 19 43 10 23 - - 0.0
04/09:00pm -5.9 -12.3 -6.7 94 0.0 WSW 19 39 10 21 - - 0.0
04/08:30pm -5.8 -11.8 -6.6 94 0.0 WSW 17 46 9 25 - - 0.0
04/08:00pm -5.9 -12.3 -6.8 93 0.0 WSW 19 43 10 23 - - 0.0
04/07:30pm -6.1 -12.5 -7.2 92 0.1 WSW 19 37 10 20 - - 0.0
04/07:00pm -6.1 -12.8 -7.5 90 0.2 WSW 20 43 11 23 - - 0.0
04/06:30pm -5.9 -12.6 -8.3 83 0.5 WSW 20 44 11 24 - - 0.0
04/06:00pm -5.6 -13.1 -9.1 76 0.8 WSW 24 50 13 27 - - 0.0
04/05:30pm -5.1 -13.0 -9.0 74 1.0 W 26 50 14 27 - - 0.0
04/05:00pm -4.2 -11.3 -8.8 70 1.2 W 22 46 12 25 - - 0.0
04/04:30pm -3.1 -10.6 -8.3 67 1.5 W 24 43 13 23 - - 0.0
04/04:00pm -2.4 -9.9 -8.3 64 1.8 W 24 46 13 25 - - 0.0
04/03:30pm -2.0 -9.8 -7.7 65 1.8 W 26 48 14 26 - - 0.0
04/03:10pm -1.9 -10.1 -8.0 63 1.9 W 28 54 15 29 - - 0.0
04/03:00pm -1.4 -8.7 -6.1 70 1.5 W 24 57 13 31 - - 0.0
04/02:30pm -1.1 -6.5 -1.7 96 0.2 W 17 39 9 21 - - 0.0
04/02:00pm -1.2 -6.2 -1.5 98 0.1 WNW 15 33 8 18 - - 0.0
04/01:30pm -1.1 -6.9 -1.2 99 0.0 WNW 19 39 10 21 - - 0.0
04/01:00pm -0.4 -6.1 -0.4 100 0.0 W 19 43 10 23 - - 0.0
04/12:30pm -1.1 -6.8 -1.1 100 0.0 W 19 37 10 20 - - 0.0
04/12:00pm -1.6 -8.7 -1.6 100 0.0 W 26 46 14 25 - - 0.0
04/11:30am -0.9 -7.2 -0.9 100 0.0 W 22 56 12 30 - - 0.0
04/11:00am -0.8 -6.7 -0.8 100 0.0 W 20 46 11 25 - - 0.0
04/10:30am -0.6 -6.8 -0.6 100 0.0 W 22 41 12 22 - - 0.0
04/10:00am -0.3 -6.9 -0.3 100 0.0 W 24 48 13 26 - - 0.0
04/09:30am -0.2 -6.0 -0.2 100 0.0 W 20 48 11 26 - - 0.0
04/09:00am -0.1 -5.9 -0.1 100 0.0 W 20 46 11 25 - - 0.0
04/08:30am -0.3 -5.9 -0.3 100 0.0 W 19 37 10 20 - - 0.0
04/08:00am -0.5 -6.2 -0.5 100 0.0 WNW 19 39 10 21 - - 0.0
04/07:30am -0.7 -6.6 -0.7 100 0.0 WNW 20 39 11 21 - - 0.0
04/07:00am -0.7 -6.6 -0.7 100 0.0 WNW 20 37 11 20 - - 0.0
04/06:30am -0.5 -6.2 -0.5 100 0.0 WNW 19 33 10 18 - - 0.0
04/06:00am -0.3 -6.1 -0.3 100 0.0 WNW 20 39 11 21 - - 0.0
04/05:30am -0.3 -6.5 -0.3 100 0.0 WNW 22 43 12 23 - - 0.0
04/05:00am -0.1 -6.7 -0.1 100 0.0 WNW 24 43 13 23 - - 0.0
04/04:30am -0.1 -5.9 -0.1 100 0.0 WNW 20 41 11 22 - - 0.0
04/04:00am -0.1 -6.3 -0.1 100 0.0 WNW 22 43 12 23 - - 0.0
04/03:30am -0.2 -6.0 -0.2 100 0.0 WNW 20 37 11 20 - - 0.0
04/03:00am -0.1 -5.9 -0.1 100 0.0 WNW 20 39 11 21 - - 0.0
04/02:30am -0.1 -5.9 -0.1 100 0.0 WNW 20 41 11 22 - - 0.0
04/02:00am -0.3 -5.9 -0.3 100 0.0 WNW 19 33 10 18 - - 0.0
04/01:30am -0.5 -5.8 -0.5 100 0.0 WNW 17 32 9 17 - - 0.0
04/01:00am -0.5 -6.2 -0.5 100 0.0 WNW 19 35 10 19 - - 0.0
04/12:30am -0.2 -5.4 -0.2 100 0.0 WNW 17 32 9 17 - - 0.0
04/12:00am 0.2 -5.0 0.2 100 0.0 W 17 33 9 18 - - 0.0
 
Date/Time
EST
Temp
°C
App
Temp
°C
Dew
Point
°C
Rel
Hum
%
Delta-T
°C
Wind Press
QNH
hPa
Press
MSL
hPa
Rain since
9am
mm
Dir  Spd
km/h
Gust
km/h
Spd
kts
Gust
kts
03/11:30pm 0.7 -4.4 0.7 100 0.0 WNW 17 32 9 17 - - 0.0
03/11:00pm 1.0 -4.4 1.0 100 0.0 WNW 19 33 10 18 - - 0.0
03/10:30pm 0.9 -4.7 0.9 100 0.0 WNW 20 35 11 19 - - 0.0
03/10:00pm 1.0 -4.4 1.0 100 0.0 WNW 19 33 10 18 - - 0.0
03/09:30pm 0.9 -4.2 0.9 100 0.0 W 17 32 9 17 - - 0.0
03/09:00pm 1.0 -3.7 1.0 100 0.0 W 15 30 8 16 - - 0.0
03/08:30pm 1.0 -4.1 1.0 100 0.0 W 17 32 9 17 - - 0.0
03/08:00pm 0.7 -4.0 0.7 100 0.0 W 15 28 8 15 - - 0.0
03/07:30pm 0.5 -4.3 0.5 100 0.0 WNW 15 28 8 15 - - 0.0
03/07:00pm 0.2 -4.2 0.1 99 0.0 W 13 24 7 13 - - 0.0
03/06:30pm 0.6 -4.2 0.3 98 0.1 WNW 15 28 8 15 - - 0.0
03/06:00pm 1.0 -3.7 0.6 97 0.2 W 15 28 8 15 - - 0.0
03/05:30pm 1.4 -3.1 -0.2 89 0.7 W 13 28 7 15 - - 0.0
03/05:00pm 1.9 -3.0 -0.7 83 1.1 W 15 28 8 15 - - 0.0
03/04:30pm 2.6 -2.3 -0.8 78 1.4 W 15 30 8 16 - - 0.0
03/04:00pm 3.4 -1.1 -0.2 77 1.5 WNW 13 26 7 14 - - 0.0
03/03:30pm 4.5 -0.3 0.1 73 1.9 WNW 15 30 8 16 - - 0.0
03/03:00pm 5.1 0.3 0.5 72 2.0 W 15 30 8 16 - - 0.0
03/02:30pm 5.6 1.2 0.4 69 2.3 WNW 13 26 7 14 - - 0.0
03/02:00pm 5.8 1.4 0.6 69 2.3 WNW 13 26 7 14 - - 0.0
03/01:30pm 6.6 2.3 0.7 66 2.6 WNW 13 26 7 14 - - 0.0
03/01:00pm 6.8 2.8 0.7 65 2.7 WNW 11 28 6 15 - - 0.0
03/12:30pm 6.7 3.1 0.4 64 2.8 WNW 9 22 5 12 - - 0.0
03/12:00pm 5.1 0.8 -1.3 63 2.7 WNW 11 19 6 10 - - 0.0
03/11:30am 5.5 1.5 -2.6 56 3.3 WNW 9 17 5 9 - - 0.0
03/11:00am 5.8 1.7 -3.3 52 3.6 W 9 17 5 9 - - 0.0
03/10:30am 5.9 1.4 -7.0 39 4.7 W 9 19 5 10 - - 0.0
03/10:00am 5.6 1.3 -9.0 34 5.0 W 7 13 4 7 - - 0.0
03/09:30am 5.6 0.8 -10.2 31 5.3 W 9 17 5 9 - - 0.0
03/09:00am 5.2 0.3 -11.4 29 5.7 W 9 17 5 9 - - 0.0
03/08:30am 4.6 -0.3 -11.9 29 5.5 W 9 17 5 9 - - 0.0
03/08:00am 3.5 -1.8 -12.4 30 5.1 W 11 20 6 11 - - 0.0
03/07:30am 2.9 -2.4 -12.9 30 4.9 W 11 19 6 10 - - 0.0
03/07:00am 3.1 -2.6 -13.2 29 5.1 WSW 13 22 7 12 - - 0.0
03/06:30am 2.8 -2.5 -13.0 30 4.9 W 11 19 6 10 - - 0.0
03/06:00am 2.5 -2.4 -12.1 33 4.6 W 9 20 5 11 - - 0.0
03/05:30am 2.4 -2.4 -10.8 37 4.3 W 9 19 5 10 - - 0.0
03/05:00am 2.6 -2.2 -10.3 38 4.3 WNW 9 15 5 8 - - 0.0
03/04:30am 2.8 -2.4 -10.1 38 4.3 WNW 11 15 6 8 - - 0.0
03/04:00am 3.1 -2.0 -9.5 39 4.3 WNW 11 17 6 9 - - 0.0
03/03:30am 2.7 -2.6 -12.3 32 4.8 WNW 11 15 6 8 - - 0.0
03/03:00am 2.8 -2.5 -12.6 31 4.9 WNW 11 15 6 8 - - 0.0
03/02:30am 2.8 -2.5 -12.2 32 4.8 WNW 11 15 6 8 - - 0.0
03/02:00am 2.6 -2.6 -10.3 38 4.3 WNW 11 17 6 9 - - 0.0
03/01:30am 2.8 -1.9 -8.8 42 4.0 WNW 9 13 5 7 - - 0.0
03/01:00am 3.3 -1.5 -10.3 36 4.6 WNW 9 13 5 7 - - 0.0
03/12:30am 3.6 -1.1 -9.4 38 4.5 WNW 9 11 5 6 - - 0.0
03/12:00am 2.8 -1.8 -7.6 46 3.8 WNW 9 13 5 7 - - 0.0
 
Date/Time
EST
Temp
°C
App
Temp
°C
Dew
Point
°C
Rel
Hum
%
Delta-T
°C
Wind Press
QNH
hPa
Press
MSL
hPa
Rain since
9am
mm
Dir  Spd
km/h
Gust
km/h
Spd
kts
Gust
kts
02/11:30pm 2.9 -1.5 -6.0 52 3.4 WNW 9 11 5 6 - - 0.0
02/11:00pm 3.1 -1.1 -4.1 59 2.7 NW 9 11 5 6 - - 0.0
02/10:30pm 4.3 0.5 -6.0 47 3.8 N 6 7 3 4 - - 0.0
02/10:00pm 4.4 0.9 -5.9 47 3.8 N 4 6 2 3 - - 0.0
02/09:30pm 4.6 1.1 -6.3 45 4.0 S 4 6 2 3 - - 0.0

Other formats

Comma delimited format used in spreadsheet applications
http://www.bom.gov.au/fwo/IDN60801/IDN60801.95925.axf

JavaScript Object Notation format (JSON) in row-major order
http://www.bom.gov.au/fwo/IDN60801/IDN60801.95925.json

Data quality

Most of these data are generated automatically and are frequently updated. Quality checks on data are not normally performed. It is possible for incorrect values to appear. Refer to information at About Latest Weather Observations and please check the disclaimer before using these data.